Time;durP1;ratioP1;P1;durP2;ratioP2;P2;SDS_P1;SDS_P2;PMS_P1;PMS_P2;Temp;Humidity;BMP_temperature;BMP_pressure;BME280_temperature;BME280_humidity;BME280_pressure;Samples;Min_cycle;Max_cycle;Signal;HPM_P1;HPM_P2
2022/07/22 00:00:01;;;;;;;10.77;9.87;;;21.10;60.10;;;20.38;57.46;98273.72;4999041;28;20543;-82
2022/07/22 00:02:30;;;;;;;12.00;9.80;;;21.10;60.60;;;20.23;57.80;98265.47;4998103;28;20568;-82
2022/07/22 00:04:57;;;;;;;10.83;9.80;;;20.90;60.80;;;20.23;58.56;98268.22;5000330;28;20511;-82
2022/07/22 00:07:25;;;;;;;11.27;10.27;;;20.90;61.30;;;20.12;58.81;98272.06;4993636;28;20479;-86
2022/07/22 00:09:52;;;;;;;11.27;10.23;;;20.80;61.50;;;20.02;59.14;98273.69;5000942;28;20592;-78
2022/07/22 00:12:19;;;;;;;10.40;9.40;;;20.70;61.80;;;20.15;58.86;98266.03;4998223;28;20551;-83
2022/07/22 00:14:47;;;;;;;11.17;10.17;;;20.80;62.00;;;20.37;58.27;98263.84;4997204;28;20456;-84
2022/07/22 00:17:14;;;;;;;11.03;10.13;;;21.00;61.70;;;20.55;57.72;98260.81;4996416;28;20577;-85
2022/07/22 00:19:43;;;;;;;10.93;10.00;;;21.20;61.40;;;20.58;57.50;98261.09;5002363;28;20517;-78
2022/07/22 00:22:10;;;;;;;11.40;10.40;;;21.30;61.30;;;20.75;56.91;98258.06;4996000;28;20526;-86
2022/07/22 00:24:38;;;;;;;10.20;9.40;;;21.40;61.30;;;20.48;57.62;98272.06;5001414;28;20461;-86
2022/07/22 00:27:05;;;;;;;10.43;9.37;;;21.30;61.30;;;20.26;58.27;98270.44;5002642;28;20991;-85
2022/07/22 00:29:33;;;;;;;11.53;10.63;;;21.10;61.40;;;19.64;60.06;98273.81;4996871;28;20470;-84
2022/07/22 00:32:00;;;;;;;10.53;9.70;;;20.70;62.10;;;19.40;60.81;98274.28;5002612;28;20459;-86
2022/07/22 00:34:27;;;;;;;11.83;10.83;;;20.30;62.70;;;19.28;60.96;98270.13;4996669;28;20487;-84
2022/07/22 00:36:56;;;;;;;11.13;10.03;;;20.10;63.20;;;19.16;61.56;98273.06;5001280;28;20963;-81
2022/07/22 00:39:23;;;;;;;10.37;9.47;;;20.00;63.50;;;18.88;61.90;98240.31;4997743;28;20619;-79
2022/07/22 00:41:51;;;;;;;10.37;9.57;;;19.90;64.20;;;18.96;62.59;98275.38;4999110;28;20464;-85
2022/07/22 00:44:18;;;;;;;11.20;10.30;;;19.70;64.90;;;18.77;62.97;98277.72;4998388;28;20566;-87
2022/07/22 00:46:45;;;;;;;11.57;10.57;;;19.60;65.30;;;18.69;63.32;98270.81;5003306;28;20463;-84
2022/07/22 00:49:13;;;;;;;10.30;9.47;;;19.50;66.10;;;18.85;63.20;98273.66;5004701;28;20471;-81
2022/07/22 00:51:40;;;;;;;10.83;10.03;;;19.50;66.80;;;18.94;62.65;98274.00;4996493;28;21961;-85
2022/07/22 00:54:10;;;;;;;11.17;10.27;;;19.60;66.80;;;18.92;62.84;98262.50;5004236;28;20455;-83
2022/07/22 00:56:38;;;;;;;11.40;10.47;;;19.60;67.00;;;18.87;62.90;98260.53;4997217;28;20463;-78
2022/07/22 00:59:09;;;;;;;11.33;10.43;;;19.60;67.30;;;18.97;62.21;98259.81;5000850;28;20460;-81
2022/07/22 01:01:37;;;;;;;10.60;9.80;;;19.60;67.00;;;18.86;63.00;98264.38;4997935;28;20889;-81
2022/07/22 01:04:04;;;;;;;12.13;11.03;;;19.60;67.60;;;18.76;63.33;98273.34;5001974;28;20463;-83
2022/07/22 01:06:32;;;;;;;10.87;10.07;;;19.50;67.80;;;18.95;62.83;98262.78;5003941;28;20455;-82
2022/07/22 01:09:00;;;;;;;12.40;11.30;;;19.60;68.00;;;18.95;62.46;98254.56;5000846;28;20475;-82
2022/07/22 01:11:29;;;;;;;10.90;9.80;;;19.70;67.80;;;19.05;62.23;98261.25;5002290;28;20469;-82
2022/07/22 01:13:58;;;;;;;11.87;10.87;;;19.70;67.80;;;18.85;62.47;98257.25;5004762;28;20475;-82
2022/07/22 01:16:26;;;;;;;11.63;10.53;;;19.70;67.80;;;18.77;63.59;98264.03;5002880;28;20527;-88
2022/07/22 01:18:53;;;;;;;12.23;11.03;;;19.50;68.60;;;18.46;64.08;98254.78;5006422;28;20456;-85
2022/07/22 01:21:22;;;;;;;12.60;11.50;;;19.40;69.00;;;18.40;64.59;98262.94;5004610;28;20865;-78
2022/07/22 01:23:50;;;;;;;10.63;9.83;;;19.20;69.50;;;18.24;65.19;98264.72;5002716;28;20504;-87
2022/07/22 01:26:18;;;;;;;11.70;10.63;;;19.10;70.30;;;18.05;65.88;98260.72;5002502;28;20466;-83
2022/07/22 01:28:45;;;;;;;13.00;11.70;;;18.90;70.90;;;18.11;65.70;98260.50;5000370;28;20501;-78
2022/07/22 01:31:12;;;;;;;12.10;11.20;;;18.90;71.60;;;17.73;65.67;98215.84;5003627;28;20997;-81
2022/07/22 01:33:40;;;;;;;12.80;11.50;;;18.90;71.70;;;17.78;66.36;98262.31;5008959;28;20471;-79
2022/07/22 01:36:08;;;;;;;12.53;11.40;;;18.80;72.20;;;17.93;66.42;98269.03;5011231;28;20449;-79
2022/07/22 01:38:37;;;;;;;11.17;10.27;;;18.70;73.00;;;17.90;66.74;98261.34;5017539;28;20486;-77
2022/07/22 01:41:06;;;;;;;11.07;10.07;;;18.70;73.20;;;17.88;66.83;98266.25;5027843;28;20455;-80
2022/07/22 01:43:34;;;;;;;12.00;10.90;;;18.70;73.90;;;17.66;67.47;98258.91;5018001;28;20460;-82
2022/07/22 01:46:01;;;;;;;11.50;10.60;;;18.50;74.40;;;17.65;67.50;98257.25;5005481;28;20459;-85
2022/07/22 01:48:29;;;;;;;12.27;11.20;;;18.50;75.00;;;17.43;68.04;98271.78;5004478;28;20533;-82
2022/07/22 01:50:56;;;;;;;12.17;10.97;;;18.30;75.60;;;17.12;68.08;98227.69;5009320;28;20478;-80
2022/07/22 01:53:23;;;;;;;12.43;11.40;;;18.20;76.10;;;17.41;68.42;98258.34;5021489;28;20460;-78
2022/07/22 01:55:52;;;;;;;12.13;10.93;;;18.20;76.60;;;17.36;68.97;98260.19;5019712;28;20475;-79
2022/07/22 01:58:19;;;;;;;11.73;10.83;;;18.10;77.30;;;17.33;68.76;98257.97;5018476;28;20470;-83
2022/07/22 02:00:47;;;;;;;12.03;11.10;;;18.20;77.50;;;16.93;69.24;98214.34;5018435;28;20832;-75
2022/07/22 02:03:15;;;;;;;11.83;10.73;;;18.10;78.00;;;17.23;69.55;98264.97;5040649;28;20448;-74
2022/07/22 02:05:42;;;;;;;12.57;11.57;;;18.00;78.70;;;17.16;69.69;98269.78;5022466;28;20478;-77
2022/07/22 02:08:11;;;;;;;12.30;11.23;;;18.00;78.80;;;17.04;70.48;98269.06;5038736;28;20502;-79
2022/07/22 02:10:39;;;;;;;13.00;11.90;;;17.90;79.50;;;17.04;70.41;98269.06;5022235;28;20616;-75
2022/07/22 02:13:08;;;;;;;13.37;12.17;;;17.90;79.70;;;16.90;71.09;98268.56;5022579;28;20448;-74
2022/07/22 02:15:36;;;;;;;13.23;12.23;;;17.80;80.00;;;16.83;71.13;98271.47;5003434;28;20439;-83
2022/07/22 02:18:12;;;;;;;13.50;12.30;;;17.70;80.60;;;16.80;71.27;98263.81;5024870;28;20540;-74
2022/07/22 02:20:40;;;;;;;12.57;11.53;;;17.70;81.20;;;16.93;70.74;98271.63;5022863;28;20494;-79
2022/07/22 02:23:08;;;;;;;14.37;13.07;;;17.70;81.60;;;16.92;70.96;98278.16;5017842;28;20533;-80
2022/07/22 02:25:35;;;;;;;12.43;11.20;;;17.70;81.40;;;16.90;71.47;98272.13;5013513;28;20452;-76
2022/07/22 02:28:03;;;;;;;11.80;10.73;;;17.70;81.60;;;16.97;71.08;98264.59;5014878;28;20481;-75
2022/07/22 02:30:32;;;;;;;13.80;12.67;;;17.80;81.90;;;16.97;71.08;98263.75;5000614;28;21007;-80
2022/07/22 02:33:02;;;;;;;13.70;12.40;;;17.80;81.70;;;16.84;71.60;98273.13;4997527;28;20459;-85
2022/07/22 02:35:29;;;;;;;14.20;13.10;;;17.70;82.00;;;16.76;71.94;98266.19;4992048;28;20463;-77
2022/07/22 02:37:56;;;;;;;13.50;12.40;;;17.70;82.40;;;16.79;72.16;98264.88;4999611;28;20480;-84
2022/07/22 02:40:24;;;;;;;14.17;12.97;;;17.70;82.30;;;16.88;71.72;98270.72;4997544;28;20462;-82
2022/07/22 02:42:51;;;;;;;15.03;13.50;;;17.70;82.40;;;16.74;72.44;98272.97;4998306;28;20468;-79
2022/07/22 02:45:19;;;;;;;14.10;12.90;;;17.70;82.70;;;16.71;72.18;98272.41;4997614;28;20472;-81
2022/07/22 02:47:50;;;;;;;14.27;13.03;;;17.60;83.00;;;16.63;72.48;98272.81;4995909;28;20472;-84
2022/07/22 02:50:17;;;;;;;13.70;12.40;;;17.60;83.10;;;16.64;72.75;98260.84;4995251;28;20714;-84
2022/07/22 02:52:44;;;;;;;14.97;13.37;;;17.60;83.40;;;16.59;73.03;98266.19;5000093;28;20455;-82
2022/07/22 02:55:12;;;;;;;13.50;12.10;;;17.50;83.60;;;16.69;72.77;98269.09;4997723;28;21477;-81
2022/07/22 02:57:39;;;;;;;13.67;12.40;;;17.50;83.70;;;16.60;72.75;98265.13;4997920;28;20455;-84
2022/07/22 03:00:09;;;;;;;14.03;12.73;;;17.50;84.00;;;16.64;73.00;98263.56;5001855;28;20542;-87
2022/07/22 03:02:37;;;;;;;14.60;13.20;;;17.50;84.40;;;16.64;73.30;98266.28;5004210;28;20458;-86
2022/07/22 03:05:07;;;;;;;14.90;13.40;;;17.50;84.50;;;16.64;73.13;98274.47;4998797;28;20463;-83
2022/07/22 03:07:35;;;;;;;13.10;12.10;;;17.50;84.20;;;16.54;73.50;98271.59;4998765;28;20456;-81
2022/07/22 03:10:04;;;;;;;13.00;11.70;;;17.40;84.50;;;16.47;73.79;98277.19;5014649;28;20899;-80
2022/07/22 03:12:32;;;;;;;12.03;10.97;;;17.40;85.20;;;16.60;73.53;98270.56;5000727;28;20628;-80
2022/07/22 03:14:59;;;;;;;14.73;13.33;;;17.40;85.80;;;16.48;73.96;98267.94;4996041;28;20455;-79
2022/07/22 03:17:26;;;;;;;12.37;11.37;;;17.40;85.70;;;16.51;74.08;98263.91;4995350;28;20505;-82
2022/07/22 03:19:54;;;;;;;13.70;12.60;;;17.30;86.00;;;16.05;74.76;98221.19;5014687;28;20472;-76
2022/07/22 03:22:23;;;;;;;13.33;12.23;;;17.30;86.20;;;16.40;74.56;98271.09;5002544;28;20550;-83
2022/07/22 03:24:50;;;;;;;13.87;12.67;;;17.20;86.60;;;16.47;74.53;98265.47;4998002;28;20455;-82
2022/07/22 03:27:17;;;;;;;13.07;11.97;;;17.30;86.80;;;16.50;74.39;98270.44;4998975;28;20950;-84
2022/07/22 03:29:45;;;;;;;14.37;13.20;;;17.30;86.70;;;16.21;74.43;98241.31;5002352;28;20467;-79
2022/07/22 03:32:12;;;;;;;13.80;12.47;;;17.30;86.30;;;16.39;74.69;98274.91;4996240;28;20452;-87
2022/07/22 03:34:40;;;;;;;14.47;13.13;;;17.30;86.60;;;16.28;75.53;98265.69;4996037;28;20525;-82
2022/07/22 03:37:07;;;;;;;15.37;13.90;;;17.20;87.10;;;16.25;75.10;98269.75;4998942;28;20467;-80
2022/07/22 03:39:36;;;;;;;14.03;12.83;;;17.20;87.20;;;16.34;74.87;98266.63;4998633;28;20458;-79
2022/07/22 03:42:03;;;;;;;14.40;13.20;;;17.20;87.50;;;16.39;74.98;98285.81;4998118;28;20470;-81
2022/07/22 03:44:31;;;;;;;14.53;13.33;;;17.20;87.30;;;16.25;74.85;98239.78;5000107;28;20474;-79
2022/07/22 03:46:58;;;;;;;14.70;13.60;;;17.30;87.00;;;16.50;74.60;98271.25;5003679;28;20464;-82
2022/07/22 03:49:25;;;;;;;18.83;16.90;;;17.40;86.90;;;16.47;74.95;98287.28;5001546;28;20588;-82
2022/07/22 03:51:53;;;;;;;19.60;17.80;;;17.30;86.80;;;16.53;74.69;98287.13;4996897;28;20943;-84
2022/07/22 03:54:20;;;;;;;18.13;16.53;;;17.40;86.80;;;16.00;74.03;98196.56;5002364;28;21056;-80
2022/07/22 03:56:48;;;;;;;18.73;17.03;;;17.40;86.30;;;16.47;74.85;98281.84;4997127;28;20456;-81
2022/07/22 03:59:16;;;;;;;16.40;14.97;;;17.30;86.80;;;16.34;75.01;98289.25;4999766;28;21020;-81
2022/07/22 04:01:43;;;;;;;16.30;14.97;;;17.30;87.10;;;16.42;75.41;98286.13;4991869;28;20458;-83
2022/07/22 04:04:11;;;;;;;16.43;14.93;;;17.30;87.40;;;16.50;74.79;98286.78;4998355;28;20470;-81
2022/07/22 04:06:38;;;;;;;16.97;15.47;;;17.40;87.00;;;16.48;74.77;98288.94;4997833;28;20475;-75
2022/07/22 04:09:05;;;;;;;16.80;15.37;;;17.40;86.80;;;16.44;75.10;98288.59;5013783;28;20471;-81
2022/07/22 04:11:32;;;;;;;17.00;15.40;;;17.30;86.90;;;16.32;75.05;98263.31;4999045;28;20528;-76
2022/07/22 04:14:01;;;;;;;17.53;15.97;;;17.40;87.20;;;16.67;74.32;98284.03;4995260;28;20529;-80
2022/07/22 04:16:28;;;;;;;15.70;14.30;;;17.50;86.40;;;16.71;73.93;98290.69;5001253;28;20454;-82
2022/07/22 04:18:56;;;;;;;15.80;14.30;;;17.60;85.70;;;16.91;73.22;98287.44;4999834;28;21049;-84
2022/07/22 04:21:23;;;;;;;15.23;13.67;;;17.80;85.30;;;17.61;70.95;98283.44;5012414;28;20471;-84
2022/07/22 04:23:51;;;;;;;15.80;14.30;;;18.50;83.20;;;18.33;67.68;98278.75;4999576;28;20565;-85
2022/07/22 04:26:18;;;;;;;15.83;14.43;;;19.30;80.10;;;19.08;64.87;98285.34;4995823;28;20464;-83
2022/07/22 04:28:45;;;;;;;15.00;13.60;;;20.00;78.20;;;19.59;63.37;98286.69;5001204;28;20541;-80
2022/07/22 04:31:14;;;;;;;13.93;12.63;;;20.70;76.20;;;20.30;60.93;98288.00;5002291;28;20457;-78
2022/07/22 04:33:42;;;;;;;15.00;13.80;;;21.40;74.00;;;20.37;60.41;98280.28;5015668;28;20501;-80
2022/07/22 04:36:09;;;;;;;15.40;13.87;;;21.70;72.60;;;20.83;58.87;98273.16;5007084;28;20464;-77
2022/07/22 04:38:36;;;;;;;14.07;12.87;;;22.20;71.30;;;21.13;57.90;98254.97;5018517;28;20541;-79
2022/07/22 04:41:03;;;;;;;14.53;13.23;;;22.60;69.90;;;21.70;56.44;98276.78;5002568;28;20465;-81
2022/07/22 04:43:31;;;;;;;14.10;12.83;;;23.00;69.00;;;21.51;56.57;98269.16;5006207;28;20529;-80
2022/07/22 04:45:58;;;;;;;14.43;13.13;;;22.70;68.40;;;21.58;56.50;98270.75;4999630;28;20487;-78
2022/07/22 04:48:27;;;;;;;14.00;12.73;;;22.90;68.20;;;21.73;55.71;98270.72;5008847;28;20491;-79
2022/07/22 04:50:54;;;;;;;15.10;13.67;;;23.10;67.10;;;21.51;56.48;98263.66;5002330;28;20516;-77
2022/07/22 04:53:21;;;;;;;14.93;13.53;;;23.20;67.10;;;21.84;55.66;98270.66;5004989;28;20453;-80
2022/07/22 04:55:49;;;;;;;15.53;13.97;;;23.40;66.50;;;22.13;54.80;98272.69;5001666;28;20526;-79
2022/07/22 04:58:16;;;;;;;16.77;15.40;;;23.50;66.30;;;21.96;54.22;98213.38;5022985;28;20479;-76
2022/07/22 05:00:44;;;;;;;15.77;14.37;;;23.70;65.90;;;22.71;52.73;98260.16;5005518;28;20490;-77
2022/07/22 05:03:12;;;;;;;14.90;13.70;;;24.00;64.80;;;23.30;51.39;98249.09;4987393;28;20812;-76
2022/07/22 05:05:41;;;;;;;16.03;14.67;;;24.30;64.50;;;22.98;52.29;98272.56;5005074;28;20469;-80
2022/07/22 05:08:08;;;;;;;19.40;17.80;;;24.60;63.80;;;23.85;49.53;98248.66;5008950;28;20485;-78
2022/07/22 05:10:35;;;;;;;15.40;14.20;;;25.20;62.30;;;22.68;52.60;98258.78;5020098;28;20479;-80
2022/07/22 05:13:03;;;;;;;14.60;13.40;;;24.60;62.70;;;23.26;51.80;98270.03;5009376;28;20503;-80
2022/07/22 05:15:30;;;;;;;15.30;13.80;;;24.60;63.00;;;23.36;51.26;98269.97;4997998;28;20472;-80
2022/07/22 05:17:57;;;;;;;15.43;14.20;;;24.80;62.40;;;22.92;51.79;98272.59;4998575;28;20460;-81
2022/07/22 05:20:25;;;;;;;14.63;13.33;;;24.40;62.30;;;23.13;51.63;98266.91;5011776;28;20899;-76
2022/07/22 05:22:54;;;;;;;15.77;13.83;;;24.30;62.90;;;23.45;51.11;98273.72;4997065;28;20544;-75
2022/07/22 05:25:21;;;;;;;14.63;13.33;;;24.50;62.60;;;23.20;52.16;98278.38;4996267;28;20457;-81
2022/07/22 05:27:53;;;;;;;14.47;13.20;;;24.10;63.00;;;23.12;52.11;98279.00;4998676;28;20471;-83
2022/07/22 05:30:20;;;;;;;14.57;13.20;;;24.20;62.80;;;22.60;53.19;98262.19;4995555;28;21087;-82
2022/07/22 05:32:48;;;;;;;14.73;13.57;;;24.30;62.70;;;22.99;52.31;98263.19;4998368;28;20552;-82
2022/07/22 05:35:15;;;;;;;14.03;12.83;;;24.10;63.00;;;23.71;50.82;98272.56;4993780;28;20461;-82
2022/07/22 05:37:42;;;;;;;14.03;12.93;;;24.40;62.80;;;24.01;50.16;98274.06;4988803;28;20451;-82
2022/07/22 05:40:12;;;;;;;13.03;12.03;;;25.00;62.20;;;23.97;50.03;98272.22;5006334;28;20991;-78
2022/07/22 05:42:39;;;;;;;12.83;11.73;;;25.30;61.40;;;23.69;50.93;98267.34;4995836;28;20480;-83
2022/07/22 05:45:08;;;;;;;13.63;12.53;;;25.00;61.50;;;23.68;51.15;98275.94;4993748;28;20490;-84
2022/07/22 05:47:36;;;;;;;13.10;12.00;;;24.60;62.00;;;23.70;51.02;98268.97;4990222;28;20992;-84
2022/07/22 05:50:03;;;;;;;12.57;11.57;;;25.10;61.70;;;23.43;51.71;98270.44;4994391;28;20485;-83
2022/07/22 05:52:31;;;;;;;12.07;11.03;;;24.70;61.90;;;22.41;54.69;98267.53;5010138;28;21212;-82
2022/07/22 05:55:01;;;;;;;11.33;10.53;;;23.60;63.40;;;23.10;52.70;98261.16;4994109;28;20588;-82
2022/07/22 05:57:29;;;;;;;12.63;11.43;;;24.30;62.90;;;23.15;52.98;98266.59;4989546;28;20449;-83
2022/07/22 05:59:57;;;;;;;13.80;11.37;;;24.30;63.00;;;23.28;52.18;98254.09;4995366;28;20817;-83
2022/07/22 06:02:24;;;;;;;12.80;11.70;;;24.60;62.30;;;23.83;50.96;98266.63;4999188;28;20453;-77
2022/07/22 06:04:51;;;;;;;12.53;11.43;;;24.90;62.40;;;24.16;50.15;98272.25;4997263;28;20484;-75
2022/07/22 06:07:19;;;;;;;14.37;12.97;;;25.40;61.80;;;23.39;52.55;98269.38;4999089;28;20567;-75
2022/07/22 06:09:46;;;;;;;12.67;11.37;;;25.30;61.50;;;23.97;51.19;98278.56;4991743;28;20489;-74
2022/07/22 06:12:13;;;;;;;11.93;10.90;;;25.50;61.30;;;24.31;50.07;98280.28;4996461;28;20461;-76
2022/07/22 06:14:42;;;;;;;12.17;11.17;;;25.50;61.10;;;23.67;51.35;98277.06;5009876;28;20469;-74
2022/07/22 06:17:09;;;;;;;12.23;11.03;;;25.20;61.30;;;23.94;51.15;98284.69;5002238;28;20455;-75
2022/07/22 06:19:36;;;;;;;11.80;10.80;;;25.10;61.60;;;23.86;51.31;98282.56;4998415;28;20943;-75
2022/07/22 06:22:04;;;;;;;14.03;10.50;;;25.10;61.50;;;24.01;50.84;98285.09;4987246;28;21134;-75
2022/07/22 06:24:31;;;;;;;10.97;10.07;;;25.40;61.00;;;23.21;52.59;98285.53;4994165;28;20513;-74
2022/07/22 06:26:58;;;;;;;11.57;10.47;;;25.10;60.90;;;22.21;55.59;98285.81;4994102;28;20472;-74
2022/07/22 06:29:25;;;;;;;11.80;10.70;;;24.10;62.20;;;21.30;58.33;98289.53;5000279;28;20913;-70
2022/07/22 06:31:55;;;;;;;11.67;10.17;;;23.00;64.00;;;20.91;59.72;98289.09;4995782;28;20461;-78
2022/07/22 06:34:22;;;;;;;12.17;11.17;;;22.20;65.50;;;20.53;60.88;98275.66;4998244;28;20469;-80
2022/07/22 06:36:49;;;;;;;11.40;10.50;;;21.80;66.90;;;20.45;61.58;98280.88;4992983;28;20501;-79
2022/07/22 06:39:16;;;;;;;10.50;9.70;;;21.50;67.90;;;20.37;61.80;98287.72;5001550;28;20471;-81
2022/07/22 06:41:44;;;;;;;13.40;12.20;;;21.40;68.60;;;20.34;62.65;98297.31;5015359;28;20468;-78
2022/07/22 06:44:12;;;;;;;11.80;10.87;;;21.30;69.60;;;20.39;62.56;98299.25;5019498;28;20503;-78
2022/07/22 06:46:39;;;;;;;12.60;11.50;;;21.20;70.30;;;20.30;62.49;98289.88;5023972;28;20462;-76
2022/07/22 06:49:07;;;;;;;13.67;12.47;;;21.20;70.30;;;20.37;62.43;98299.50;5004858;28;20508;-80
2022/07/22 06:51:34;;;;;;;12.50;11.30;;;21.20;70.60;;;20.18;63.11;98292.91;4998800;28;20464;-78
2022/07/22 06:54:02;;;;;;;13.73;12.63;;;21.10;71.00;;;20.38;62.74;98298.41;4993211;28;20485;-81
2022/07/22 06:56:29;;;;;;;14.23;13.00;;;21.20;71.60;;;20.52;62.44;98300.59;4995931;28;20498;-81
2022/07/22 06:58:57;;;;;;;14.40;12.90;;;21.30;71.50;;;20.57;62.71;98284.16;4996170;28;20460;-77
2022/07/22 07:01:24;;;;;;;14.57;13.23;;;21.50;71.90;;;20.67;61.51;98299.81;4995784;28;20459;-76
2022/07/22 07:03:51;;;;;;;11.90;10.90;;;21.50;70.90;;;20.48;61.52;98261.94;5000377;28;20456;-78
2022/07/22 07:06:20;;;;;;;14.37;13.17;;;21.50;71.20;;;20.78;61.66;98292.38;4997295;28;20499;-80
2022/07/22 07:08:48;;;;;;;12.90;11.67;;;21.60;71.30;;;20.82;60.95;98288.00;4993391;28;20762;-79
2022/07/22 07:11:15;;;;;;;14.33;12.97;;;21.70;70.80;;;20.93;61.17;98292.38;5009510;28;20469;-78
2022/07/22 07:13:42;;;;;;;13.03;11.70;;;21.80;71.00;;;20.96;61.11;98280.03;4995088;28;20931;-74
2022/07/22 07:16:09;;;;;;;14.07;12.53;;;21.80;71.10;;;20.85;60.40;98260.00;4988615;28;20521;-78
2022/07/22 07:18:36;;;;;;;13.80;12.60;;;21.80;70.70;;;21.25;59.79;98281.31;4997853;28;20459;-73
2022/07/22 07:21:05;;;;;;;14.73;13.33;;;22.00;70.30;;;21.23;59.74;98265.94;4994475;28;20480;-79
2022/07/22 07:23:34;;;;;;;14.60;13.10;;;22.00;70.20;;;21.40;59.48;98270.28;4996872;28;20525;-79
2022/07/22 07:26:01;;;;;;;14.43;13.07;;;22.20;70.30;;;21.27;59.69;98262.63;4992692;28;23438;-74
2022/07/22 07:28:28;;;;;;;13.80;12.40;;;22.10;70.20;;;21.27;59.55;98270.88;4997637;28;20551;-76
2022/07/22 07:30:56;;;;;;;12.87;11.70;;;22.10;70.10;;;21.48;59.31;98269.72;4996332;28;20472;-77
2022/07/22 07:33:24;;;;;;;14.00;12.50;;;22.20;70.20;;;21.51;58.89;98263.66;4999877;28;20467;-78
2022/07/22 07:35:51;;;;;;;13.38;12.27;;;22.30;69.70;;;21.63;58.97;98259.75;4995501;28;20497;-79
2022/07/22 07:38:18;;;;;;;13.07;11.87;;;22.40;69.90;;;21.79;58.52;98264.09;4999557;28;20207;-77
2022/07/22 07:40:47;;;;;;;13.60;12.50;;;22.60;69.70;;;21.90;57.85;98256.59;4993785;28;20461;-79
2022/07/22 07:43:14;;;;;;;13.47;12.27;;;22.60;69.20;;;21.85;57.86;98247.56;4999333;28;20511;-81
2022/07/22 07:45:42;;;;;;;13.20;12.07;;;22.70;69.00;;;21.94;57.67;98254.13;5006401;28;20470;-81
2022/07/22 07:48:09;;;;;;;13.07;11.77;;;22.70;69.00;;;21.92;57.89;98251.63;4996354;28;20474;-81
2022/07/22 07:50:36;;;;;;;14.87;13.30;;;22.70;69.00;;;21.90;58.34;98251.09;4994826;28;20580;-80
2022/07/22 07:53:05;;;;;;;14.03;12.73;;;22.70;69.60;;;21.92;57.98;98239.84;5003267;28;20473;-81
2022/07/22 07:55:35;;;;;;;13.80;12.37;;;22.70;69.10;;;22.17;57.73;98243.50;5000029;28;20469;-77
2022/07/22 07:58:04;;;;;;;12.53;11.53;;;22.80;69.20;;;22.54;56.37;98241.31;4996101;28;20542;-73
2022/07/22 08:00:33;;;;;;;11.20;10.40;;;23.20;68.80;;;22.68;56.17;98242.28;4993005;28;20525;-80
2022/07/22 08:03:01;;;;;;;12.80;11.50;;;23.30;68.50;;;22.69;55.44;98243.09;4980063;28;20508;-80
2022/07/22 08:05:29;;;;;;;13.40;12.03;;;23.40;67.60;;;22.67;55.21;98243.38;4993920;28;21041;-76
2022/07/22 08:07:57;;;;;;;12.93;10.87;;;23.40;67.10;;;22.54;55.52;98242.13;4995898;28;20467;-81
2022/07/22 08:10:24;;;;;;;13.23;12.03;;;23.30;67.20;;;22.54;56.00;98247.66;4996071;28;20480;-78
2022/07/22 08:12:53;;;;;;;13.00;11.80;;;23.30;67.50;;;22.54;55.52;98250.41;5000053;28;20464;-77
2022/07/22 08:15:22;;;;;;;12.50;11.33;;;23.30;67.20;;;22.66;55.36;98247.25;4993637;28;20573;-80
2022/07/22 08:17:49;;;;;;;14.23;12.97;;;23.40;67.10;;;22.75;55.71;98240.03;4996394;28;20459;-78
2022/07/22 08:20:16;;;;;;;12.60;11.47;;;23.50;67.40;;;22.77;55.28;98235.03;4994056;28;21085;-78
2022/07/22 08:22:46;;;;;;;13.63;12.43;;;23.60;67.20;;;22.87;55.42;98236.88;4996164;28;20461;-76
2022/07/22 08:25:13;;;;;;;13.70;12.43;;;23.60;67.30;;;22.83;55.46;98235.81;4986524;28;20459;-80
2022/07/22 08:27:40;;;;;;;13.97;12.77;;;23.50;67.20;;;22.96;55.47;98236.22;4995172;28;20517;-80
2022/07/22 08:30:08;;;;;;;13.87;12.47;;;23.60;67.70;;;22.79;55.46;98226.47;4995159;28;21135;-81
2022/07/22 08:32:37;;;;;;;12.70;11.63;;;23.60;67.00;;;23.07;55.11;98229.47;4996895;28;22307;-82
2022/07/22 08:35:06;;;;;;;13.33;11.93;;;23.70;67.10;;;23.20;54.49;98223.25;4995970;28;20675;-81
2022/07/22 08:37:33;;;;;;;14.87;13.37;;;23.90;66.80;;;23.36;53.95;98225.06;4994699;28;20554;-80
2022/07/22 08:40:01;;;;;;;13.20;12.00;;;24.00;66.60;;;23.43;53.79;98226.34;4992077;28;20472;-77
2022/07/22 08:42:28;;;;;;;13.37;12.07;;;24.10;66.30;;;23.77;53.26;98219.81;4998567;28;20935;-78
2022/07/22 08:44:56;;;;;;;12.57;11.50;;;24.30;66.20;;;23.84;52.71;98224.94;4998942;28;20494;-73
2022/07/22 08:47:24;;;;;;;12.90;11.80;;;24.50;65.70;;;23.83;51.99;98216.97;5005546;28;20555;-77
2022/07/22 08:49:53;;;;;;;11.80;10.77;;;24.60;64.80;;;23.87;52.05;98220.75;5003168;28;20513;-79
2022/07/22 08:52:20;;;;;;;12.17;10.97;;;24.50;64.90;;;23.89;52.48;98216.59;5003423;28;20514;-79
2022/07/22 08:54:47;;;;;;;12.43;11.50;;;24.60;65.10;;;23.89;52.38;98204.75;4998976;28;20591;-76
2022/07/22 08:57:14;;;;;;;11.97;11.00;;;24.60;65.10;;;24.08;52.04;98210.25;5000567;28;20457;-80
2022/07/22 08:59:53;;;;;;;13.00;11.70;;;24.70;65.00;;;24.26;51.43;98205.84;5001094;28;20966;-73
2022/07/22 09:02:22;;;;;;;10.50;9.70;;;24.90;64.70;;;24.29;50.98;98204.44;5018062;28;20456;-78
2022/07/22 09:04:57;;;;;;;11.60;10.47;;;24.90;63.90;;;24.29;50.40;98196.97;5000813;28;20458;-76
2022/07/22 09:07:30;;;;;;;10.90;10.03;;;25.00;63.50;;;24.28;50.35;98203.59;4996596;28;20468;-81
2022/07/22 09:09:59;;;;;;;12.13;11.00;;;24.90;63.20;;;24.16;49.90;98192.19;4994149;28;20526;-73
2022/07/22 09:12:27;;;;;;;9.40;8.70;;;24.90;62.40;;;24.29;48.90;98198.91;5015817;28;20481;-72
2022/07/22 09:14:58;;;;;;;10.10;9.40;;;25.00;61.60;;;24.33;48.87;98191.66;5014819;28;20528;-74
2022/07/22 09:17:27;;;;;;;10.17;9.27;;;25.00;61.30;;;24.51;48.66;98198.25;5022214;28;20741;-73
2022/07/22 09:19:58;;;;;;;11.33;10.40;;;25.10;61.40;;;24.59;48.34;98194.78;5004169;28;20550;-80
2022/07/22 09:22:41;;;;;;;11.70;10.83;;;25.20;61.30;;;24.79;48.60;98197.50;4994332;28;20824;-78
2022/07/22 09:25:26;;;;;;;12.83;11.60;;;25.40;61.70;;;24.60;48.78;98201.13;4998486;28;20462;-80
2022/07/22 09:27:56;;;;;;;10.87;10.03;;;25.30;61.10;;;24.69;48.46;98192.97;4997707;28;20454;-77
2022/07/22 09:30:27;;;;;;;11.93;10.50;;;25.30;61.50;;;24.55;48.38;98198.44;4998321;28;20487;-78
2022/07/22 09:32:56;;;;;;;11.23;10.10;;;25.20;60.90;;;24.81;48.37;98196.09;4996503;28;20461;-79
2022/07/22 09:35:25;;;;;;;10.67;9.77;;;25.40;61.20;;;24.70;48.55;98191.84;4996749;28;20495;-78
2022/07/22 09:37:55;;;;;;;10.53;9.73;;;25.40;60.90;;;24.62;47.89;98188.63;4996343;28;20583;-76
2022/07/22 09:40:25;;;;;;;9.93;9.13;;;25.30;60.10;;;24.83;47.24;98191.06;4997407;28;21054;-75
2022/07/22 09:42:55;;;;;;;10.70;9.90;;;25.50;59.90;;;24.95;47.34;98189.75;5002165;28;20464;-76
2022/07/22 09:45:26;;;;;;;9.40;8.60;;;25.50;59.90;;;25.07;46.91;98184.50;5008520;28;20465;-77
2022/07/22 09:47:56;;;;;;;10.33;8.83;;;25.70;59.80;;;25.15;46.18;98189.34;4994796;28;21022;-77
2022/07/22 09:50:27;;;;;;;10.70;9.70;;;25.70;59.10;;;25.07;46.69;98173.44;4995956;28;20532;-76
2022/07/22 09:52:57;;;;;;;10.40;9.50;;;25.80;59.10;;;25.26;44.76;98178.88;4999089;28;20466;-79
2022/07/22 09:55:27;;;;;;;10.67;9.67;;;25.90;58.50;;;25.41;45.30;98177.75;4996447;28;20551;-79
2022/07/22 09:57:56;;;;;;;9.37;8.57;;;26.00;58.40;;;25.63;45.34;98176.19;5014050;28;21864;-75
2022/07/22 10:00:26;;;;;;;10.87;9.97;;;26.10;58.40;;;25.70;44.44;98179.31;4997437;28;20464;-77
2022/07/22 10:02:57;;;;;;;11.33;10.23;;;26.20;57.80;;;25.76;44.12;98184.75;4999757;28;20459;-79
2022/07/22 10:05:28;;;;;;;10.70;9.60;;;26.30;57.50;;;25.85;43.47;98175.38;4991730;28;20858;-77
2022/07/22 10:07:56;;;;;;;9.87;8.93;;;26.40;57.00;;;25.72;43.85;98174.31;4998080;28;20472;-73
2022/07/22 10:10:26;;;;;;;9.30;8.53;;;26.40;56.90;;;25.78;44.02;98174.19;4995043;28;20481;-76